createdAt,value
2019-02-20T00:01:34.749Z,4.49
2019-02-20T00:04:03.139Z,4.52
2019-02-20T00:06:31.566Z,4.56
2019-02-20T00:09:00.031Z,4.61
2019-02-20T00:11:28.433Z,4.61
2019-02-20T00:13:56.840Z,4.68
2019-02-20T00:16:25.336Z,4.75
2019-02-20T00:18:54.646Z,4.79
2019-02-20T00:21:23.041Z,4.78
2019-02-20T00:23:51.457Z,4.78
2019-02-20T00:26:19.887Z,4.74
2019-02-20T00:28:48.300Z,4.75
2019-02-20T00:31:16.718Z,4.71
2019-02-20T00:33:45.108Z,4.79
2019-02-20T00:36:13.533Z,4.83
2019-02-20T00:38:41.931Z,4.80
2019-02-20T00:41:10.342Z,4.72
2019-02-20T00:43:40.450Z,4.60
2019-02-20T00:46:16.194Z,4.59
2019-02-20T00:48:48.982Z,4.56
2019-02-20T00:51:30.643Z,4.59
2019-02-20T00:54:00.681Z,4.52
2019-02-20T00:56:29.083Z,4.56
2019-02-20T00:58:57.515Z,4.55
2019-02-20T01:01:25.911Z,4.54
2019-02-20T01:03:54.433Z,4.38
2019-02-20T01:06:22.898Z,4.28
2019-02-20T01:08:51.313Z,4.16
2019-02-20T01:11:19.709Z,4.14
2019-02-20T01:13:48.146Z,4.11
2019-02-20T01:16:16.647Z,4.19
2019-02-20T01:18:45.058Z,4.27
2019-02-20T01:21:13.487Z,4.27
2019-02-20T01:23:41.952Z,4.30
2019-02-20T01:26:10.460Z,4.36
2019-02-20T01:28:38.871Z,4.37
2019-02-20T01:31:07.298Z,4.38
2019-02-20T01:33:35.701Z,4.26
2019-02-20T01:36:04.111Z,4.21
2019-02-20T01:38:32.513Z,4.19
2019-02-20T01:41:00.911Z,4.05
2019-02-20T01:43:29.335Z,4.07
2019-02-20T01:45:57.725Z,4.11
2019-02-20T01:48:26.132Z,4.10
2019-02-20T01:50:54.549Z,4.09
2019-02-20T01:53:22.976Z,4.02
2019-02-20T01:55:51.368Z,4.06
2019-02-20T01:58:19.794Z,3.99
2019-02-20T02:00:48.188Z,3.96
2019-02-20T02:03:16.583Z,3.84
2019-02-20T02:05:45.091Z,3.89
2019-02-20T02:08:13.515Z,4.04
2019-02-20T02:10:41.924Z,4.14
2019-02-20T02:13:10.339Z,4.13
2019-02-20T02:15:38.809Z,4.08
2019-02-20T02:18:07.300Z,4.05
2019-02-20T02:20:36.310Z,4.08
2019-02-20T02:23:04.702Z,4.10
2019-02-20T02:25:33.187Z,4.10
2019-02-20T02:28:01.666Z,4.07
2019-02-20T02:30:30.092Z,3.93
2019-02-20T02:32:58.535Z,3.81
2019-02-20T02:35:26.993Z,3.74
2019-02-20T02:37:55.432Z,3.71
2019-02-20T02:40:23.883Z,3.65
2019-02-20T02:42:52.275Z,3.76
2019-02-20T02:45:20.763Z,3.76
2019-02-20T02:47:49.923Z,3.80
2019-02-20T02:50:18.323Z,3.83
2019-02-20T02:52:46.753Z,3.82
2019-02-20T02:55:15.180Z,3.81
2019-02-20T02:57:43.650Z,3.83
2019-02-20T03:00:12.325Z,3.85
2019-02-20T03:02:40.744Z,3.86
2019-02-20T03:05:09.283Z,3.91
2019-02-20T03:07:37.705Z,3.96
2019-02-20T03:10:07.545Z,3.96
2019-02-20T03:12:35.975Z,3.93
2019-02-20T03:15:06.916Z,3.91
2019-02-20T03:17:35.325Z,3.89
2019-02-20T03:20:04.665Z,3.84
2019-02-20T03:22:33.060Z,3.84
2019-02-20T03:25:01.544Z,3.86
2019-02-20T03:27:29.944Z,3.95
2019-02-20T03:29:58.415Z,4.01
2019-02-20T03:32:26.780Z,4.08
2019-02-20T03:34:55.207Z,4.10
2019-02-20T03:37:23.602Z,4.14
2019-02-20T03:39:51.998Z,4.15
2019-02-20T03:42:20.429Z,4.19
2019-02-20T03:44:48.821Z,3.46
2019-02-20T03:47:17.240Z,4.24
2019-02-20T03:49:45.631Z,4.22
2019-02-20T03:52:14.050Z,4.23
2019-02-20T03:54:42.525Z,4.26
2019-02-20T03:57:11.016Z,4.27
2019-02-20T03:59:39.553Z,4.29
2019-02-20T04:02:07.976Z,4.30
2019-02-20T04:04:36.375Z,4.33
2019-02-20T04:07:04.782Z,4.33
2019-02-20T04:09:33.202Z,4.35
2019-02-20T04:12:01.620Z,4.36
2019-02-20T04:14:30.034Z,4.35
2019-02-20T04:16:58.436Z,4.37
2019-02-20T04:19:26.863Z,4.38
2019-02-20T04:21:55.342Z,4.39
2019-02-20T04:24:23.772Z,4.37
2019-02-20T04:26:52.229Z,4.35
2019-02-20T04:29:20.572Z,4.31
2019-02-20T04:31:49.016Z,4.33
2019-02-20T04:34:17.420Z,4.35
2019-02-20T04:36:45.835Z,4.39
2019-02-20T04:39:14.238Z,4.37
2019-02-20T04:41:42.662Z,4.35
2019-02-20T04:44:11.068Z,4.38
2019-02-20T04:46:39.464Z,4.39
2019-02-20T04:49:07.891Z,4.39
2019-02-20T04:51:36.282Z,4.42
2019-02-20T04:54:13.020Z,4.42
2019-02-20T04:56:34.828Z,4.42
2019-02-20T04:59:03.266Z,4.42
2019-02-20T05:01:31.693Z,4.41
2019-02-20T05:04:00.153Z,4.42
2019-02-20T05:06:28.561Z,4.42
2019-02-20T05:08:56.958Z,4.42
2019-02-20T05:11:25.380Z,4.42
2019-02-20T05:13:53.791Z,4.42
2019-02-20T05:16:22.270Z,4.42
2019-02-20T05:18:50.623Z,4.44
2019-02-20T05:21:19.055Z,4.44
2019-02-20T05:23:47.458Z,4.45
2019-02-20T05:26:15.853Z,4.43
2019-02-20T05:28:44.287Z,4.43
2019-02-20T05:31:12.694Z,4.44
2019-02-20T05:33:41.097Z,4.47
2019-02-20T05:36:09.525Z,4.43
2019-02-20T05:38:37.940Z,4.40
2019-02-20T05:41:06.331Z,4.43
2019-02-20T05:43:34.752Z,4.40
2019-02-20T05:46:03.171Z,4.39
2019-02-20T05:48:31.560Z,4.37
2019-02-20T05:50:59.970Z,4.35
2019-02-20T05:53:28.453Z,4.33
2019-02-20T05:55:56.894Z,4.30
2019-02-20T05:58:25.291Z,4.26
2019-02-20T06:00:53.722Z,4.26
2019-02-20T06:03:22.121Z,4.22
2019-02-20T06:05:50.514Z,4.15
2019-02-20T06:08:18.936Z,4.10
2019-02-20T06:10:47.343Z,4.12
2019-02-20T06:13:15.746Z,4.12
2019-02-20T06:15:44.157Z,4.14
2019-02-20T06:18:12.562Z,4.12
2019-02-20T06:20:40.988Z,4.08
2019-02-20T06:23:09.399Z,4.05
2019-02-20T06:25:37.809Z,4.02
2019-02-20T06:28:06.235Z,4.07
2019-02-20T06:30:34.629Z,3.99
2019-02-20T06:33:03.143Z,4.00
2019-02-20T06:35:31.582Z,4.01
2019-02-20T06:37:59.978Z,4.06
2019-02-20T06:40:28.404Z,4.12
2019-02-20T06:42:56.883Z,4.12
2019-02-20T06:45:25.276Z,4.14
2019-02-20T06:47:53.724Z,4.14
2019-02-20T06:50:22.130Z,4.14
2019-02-20T06:52:50.545Z,4.18
2019-02-20T06:55:18.970Z,4.19
2019-02-20T06:57:47.390Z,4.22
2019-02-20T07:00:15.935Z,4.23
2019-02-20T07:02:44.352Z,4.21
2019-02-20T07:05:33.430Z,4.20
2019-02-20T07:08:16.867Z,4.22
2019-02-20T07:10:54.022Z,4.26
2019-02-20T07:13:25.618Z,4.30
2019-02-20T07:15:57.069Z,4.30
2019-02-20T07:18:37.871Z,4.32
2019-02-20T07:21:26.009Z,4.30
2019-02-20T07:24:15.798Z,4.34
2019-02-20T07:27:01.887Z,4.39
2019-02-20T07:29:44.540Z,4.40
2019-02-20T07:32:15.150Z,4.40
2019-02-20T07:34:43.547Z,4.41
2019-02-20T07:37:12.045Z,4.41
2019-02-20T07:39:40.446Z,4.39
2019-02-20T07:42:08.870Z,4.37
2019-02-20T07:44:37.303Z,4.37
2019-02-20T07:47:05.692Z,4.39
2019-02-20T07:49:34.136Z,4.39
2019-02-20T07:52:02.549Z,4.38
2019-02-20T07:54:30.948Z,4.39
2019-02-20T07:56:59.380Z,4.41
2019-02-20T07:59:27.827Z,4.42
2019-02-20T08:01:56.246Z,4.39
2019-02-20T08:04:24.663Z,4.41
2019-02-20T08:06:53.148Z,4.41
2019-02-20T08:09:21.627Z,4.43
2019-02-20T08:11:50.069Z,4.47
2019-02-20T08:14:18.472Z,4.50
2019-02-20T08:16:52.269Z,4.55
2019-02-20T08:19:17.039Z,4.63
2019-02-20T08:21:45.451Z,4.72
2019-02-20T08:24:13.895Z,4.79
2019-02-20T08:26:42.311Z,4.87
2019-02-20T08:29:10.876Z,4.91
2019-02-20T08:31:39.283Z,4.94
2019-02-20T08:34:07.768Z,4.98
2019-02-20T08:36:36.300Z,4.98
2019-02-20T08:39:05.605Z,5.01
2019-02-20T08:41:34.113Z,5.07
2019-02-20T08:44:02.590Z,5.11
2019-02-20T08:46:31.074Z,5.18
2019-02-20T08:48:59.641Z,5.23
2019-02-20T08:51:28.125Z,5.29
2019-02-20T08:53:56.650Z,5.33
2019-02-20T08:56:25.046Z,5.35
2019-02-20T08:58:53.547Z,5.41
2019-02-20T09:01:21.972Z,5.47
2019-02-20T09:03:50.375Z,5.55
2019-02-20T09:06:18.812Z,5.60
2019-02-20T09:08:47.210Z,5.64
2019-02-20T09:11:15.692Z,5.70
2019-02-20T09:13:44.143Z,5.79
2019-02-20T09:16:12.580Z,5.88
2019-02-20T09:18:41.015Z,5.96
2019-02-20T09:21:09.414Z,6.00
2019-02-20T09:23:37.865Z,6.03
2019-02-20T09:26:06.342Z,6.05
2019-02-20T09:28:34.776Z,6.11
2019-02-20T09:31:03.191Z,6.15
2019-02-20T09:33:31.614Z,6.17
2019-02-20T09:36:00.034Z,6.19
2019-02-20T09:38:28.546Z,6.21
2019-02-20T09:40:56.966Z,6.21
2019-02-20T09:43:25.434Z,6.25
2019-02-20T09:45:53.871Z,6.29
2019-02-20T09:48:22.348Z,6.37
2019-02-20T09:50:50.835Z,6.47
2019-02-20T09:53:19.246Z,6.60
2019-02-20T09:55:51.474Z,6.73
2019-02-20T09:58:17.935Z,6.88
2019-02-20T10:00:46.364Z,7.00
2019-02-20T10:03:14.803Z,7.00
2019-02-20T10:05:43.243Z,7.03
2019-02-20T10:08:11.674Z,7.11
2019-02-20T10:10:40.103Z,7.08
2019-02-20T10:13:10.948Z,7.08
2019-02-20T10:15:38.743Z,7.07
2019-02-20T10:18:07.736Z,7.07
2019-02-20T10:20:36.261Z,7.06
2019-02-20T10:23:04.678Z,7.11
2019-02-20T10:25:33.125Z,7.12
2019-02-20T10:28:01.635Z,7.21
2019-02-20T10:30:30.093Z,7.27
2019-02-20T10:32:58.660Z,7.29
2019-02-20T10:35:27.035Z,7.45
2019-02-20T10:37:55.457Z,7.52
2019-02-20T10:40:23.883Z,7.65
2019-02-20T10:42:52.290Z,7.79
2019-02-20T10:45:20.785Z,7.88
2019-02-20T10:47:49.194Z,8.02
2019-02-20T10:50:17.618Z,7.98
2019-02-20T10:52:46.038Z,8.09
2019-02-20T10:55:14.591Z,8.11
2019-02-20T10:57:43.032Z,8.25
2019-02-20T11:00:24.058Z,8.40
2019-02-20T11:02:47.598Z,8.35
2019-02-20T11:05:16.293Z,8.32
2019-02-20T11:07:44.722Z,8.33
2019-02-20T11:10:13.298Z,8.36
2019-02-20T11:12:41.781Z,8.45
2019-02-20T11:15:10.263Z,8.54
2019-02-20T11:17:38.679Z,8.55
2019-02-20T11:20:09.634Z,8.67
2019-02-20T11:22:38.067Z,8.76
2019-02-20T11:25:09.804Z,8.94
2019-02-20T11:27:39.588Z,9.06
2019-02-20T11:30:20.013Z,9.11
2019-02-20T11:32:48.437Z,9.18
2019-02-20T11:35:16.902Z,9.21
2019-02-20T11:37:45.317Z,9.25
2019-02-20T11:40:13.815Z,9.30
2019-02-20T11:42:42.235Z,9.23
2019-02-20T11:45:12.930Z,9.28
2019-02-20T11:47:41.427Z,9.31
2019-02-20T11:50:10.877Z,9.33
2019-02-20T11:52:39.674Z,9.47
2019-02-20T11:55:10.143Z,9.44
2019-02-20T11:57:38.628Z,9.44
2019-02-20T12:00:12.554Z,9.55
2019-02-20T12:02:42.227Z,9.56
2019-02-20T12:05:10.892Z,9.54
2019-02-20T12:07:39.314Z,9.55
2019-02-20T12:10:12.598Z,9.70
2019-02-20T12:12:40.783Z,9.71
2019-02-20T12:15:09.636Z,9.83
2019-02-20T12:17:38.147Z,9.92
2019-02-20T12:20:08.282Z,9.93
2019-02-20T12:22:36.765Z,9.89
2019-02-20T12:25:07.710Z,9.81
2019-02-20T12:27:36.188Z,9.78
2019-02-20T12:30:07.160Z,9.73
2019-02-20T12:32:35.617Z,9.71
2019-02-20T12:35:05.247Z,9.73
2019-02-20T12:37:33.680Z,9.80
2019-02-20T12:40:02.163Z,9.85
2019-02-20T12:42:30.585Z,9.86
2019-02-20T12:44:58.996Z,9.92
2019-02-20T12:47:27.427Z,9.99
2019-02-20T12:49:55.824Z,10.03
2019-02-20T12:52:24.223Z,10.12
2019-02-20T12:54:52.759Z,10.22
2019-02-20T12:57:21.155Z,10.20
2019-02-20T12:59:49.603Z,10.22
2019-02-20T13:02:18.039Z,10.33
2019-02-20T13:04:46.532Z,10.36
2019-02-20T13:07:15.025Z,10.39
2019-02-20T13:09:43.449Z,10.42
2019-02-20T13:12:11.859Z,10.41
2019-02-20T13:14:40.285Z,10.41
2019-02-20T13:17:08.756Z,10.43
2019-02-20T13:19:37.154Z,10.42
2019-02-20T13:22:05.644Z,10.65
2019-02-20T13:24:34.077Z,11.00
2019-02-20T13:27:07.707Z,11.20
2019-02-20T13:29:32.635Z,11.26
2019-02-20T13:32:01.116Z,11.62
2019-02-20T13:34:29.537Z,11.57
2019-02-20T13:36:57.966Z,11.31
2019-02-20T13:39:26.396Z,11.17
2019-02-20T13:41:54.892Z,11.52
2019-02-20T13:44:23.395Z,11.95
2019-02-20T13:46:52.097Z,12.17
2019-02-20T13:49:20.593Z,11.98
2019-02-20T13:51:49.002Z,11.60
2019-02-20T13:54:17.500Z,11.50
2019-02-20T13:56:46.011Z,11.72
2019-02-20T13:59:14.483Z,12.25
2019-02-20T14:01:42.958Z,12.15
2019-02-20T14:04:11.731Z,11.83
2019-02-20T14:06:40.135Z,12.20
2019-02-20T14:09:08.709Z,12.33
2019-02-20T14:11:37.252Z,12.15
2019-02-20T14:14:05.690Z,11.95
2019-02-20T14:16:34.086Z,12.01
2019-02-20T14:19:02.712Z,11.74
2019-02-20T14:21:31.880Z,11.42
2019-02-20T14:24:00.307Z,11.30
2019-02-20T14:26:28.718Z,11.30
2019-02-20T14:28:57.124Z,11.35
2019-02-20T14:31:25.543Z,11.36
2019-02-20T14:33:53.963Z,11.48
2019-02-20T14:36:22.389Z,11.56
2019-02-20T14:38:50.880Z,11.43
2019-02-20T14:41:20.932Z,11.17
2019-02-20T14:43:49.438Z,11.06
2019-02-20T14:46:17.841Z,11.10
2019-02-20T14:48:47.355Z,11.08
2019-02-20T14:51:15.801Z,11.10
2019-02-20T14:53:44.592Z,11.13
2019-02-20T14:56:13.016Z,11.13
2019-02-20T14:58:42.306Z,11.14
2019-02-20T15:01:10.741Z,11.14
2019-02-20T15:03:39.162Z,11.11
2019-02-20T15:06:07.685Z,10.89
2019-02-20T15:08:36.071Z,10.77
2019-02-20T15:11:04.983Z,10.66
2019-02-20T15:13:33.399Z,10.64
2019-02-20T15:16:01.807Z,10.63
2019-02-20T15:18:30.234Z,10.63
2019-02-20T15:20:58.697Z,10.62
2019-02-20T15:23:27.096Z,10.61
2019-02-20T15:25:55.602Z,10.62
2019-02-20T15:28:24.098Z,10.62
2019-02-20T15:30:52.485Z,10.58
2019-02-20T15:33:21.012Z,10.53
2019-02-20T15:35:49.399Z,10.52
2019-02-20T15:38:17.815Z,10.51
2019-02-20T15:40:46.256Z,10.50
2019-02-20T15:43:14.738Z,10.46
2019-02-20T15:45:43.175Z,10.41
2019-02-20T15:48:11.682Z,10.39
2019-02-20T15:50:40.110Z,10.39
2019-02-20T15:53:08.562Z,10.36
2019-02-20T15:55:36.941Z,10.35
2019-02-20T15:58:05.501Z,10.31
2019-02-20T16:00:34.285Z,10.28
2019-02-20T16:03:02.725Z,10.25
2019-02-20T16:05:31.133Z,10.22
2019-02-20T16:07:59.539Z,10.20
2019-02-20T16:10:27.992Z,10.19
2019-02-20T16:12:56.412Z,10.17
2019-02-20T16:15:24.889Z,10.21
2019-02-20T16:17:53.589Z,10.18
2019-02-20T16:20:22.004Z,10.17
2019-02-20T16:22:50.488Z,10.18
2019-02-20T16:25:18.888Z,10.13
2019-02-20T16:27:47.821Z,10.12
2019-02-20T16:30:16.512Z,10.13
2019-02-20T16:32:44.935Z,10.11
2019-02-20T16:35:13.632Z,10.08
2019-02-20T16:37:42.054Z,10.06
2019-02-20T16:40:17.862Z,10.00
2019-02-20T16:42:46.304Z,9.97
2019-02-20T16:45:23.449Z,9.90
2019-02-20T16:47:52.358Z,9.90
2019-02-20T16:50:20.922Z,9.84
2019-02-20T16:52:49.463Z,9.84
2019-02-20T16:55:19.669Z,9.83
2019-02-20T16:57:56.216Z,9.77
2019-02-20T17:00:21.155Z,9.77
2019-02-20T17:02:50.161Z,9.69
2019-02-20T17:05:18.650Z,9.67
2019-02-20T17:07:47.153Z,9.62
2019-02-20T17:10:16.454Z,9.60
2019-02-20T17:12:44.872Z,9.53
2019-02-20T17:15:15.678Z,9.43
2019-02-20T17:17:44.332Z,9.34
2019-02-20T17:20:15.155Z,9.25
2019-02-20T17:22:43.766Z,9.17
2019-02-20T17:25:13.292Z,9.09
2019-02-20T17:27:41.757Z,9.04
2019-02-20T17:30:15.540Z,8.98
2019-02-20T17:32:44.350Z,8.95
2019-02-20T17:35:13.061Z,8.90
2019-02-20T17:37:41.487Z,8.84
2019-02-20T17:40:11.360Z,8.79
2019-02-20T17:42:39.844Z,8.77
2019-02-20T17:45:13.180Z,8.72
2019-02-20T17:47:41.965Z,8.68
2019-02-20T17:50:13.001Z,8.67
2019-02-20T17:52:41.471Z,8.66
2019-02-20T17:55:10.838Z,8.60
2019-02-20T17:57:39.317Z,8.56
2019-02-20T18:00:11.054Z,8.44
2019-02-20T18:02:39.461Z,8.40
2019-02-20T18:05:08.436Z,8.36
2019-02-20T18:07:37.002Z,8.35
2019-02-20T18:10:07.882Z,8.30
2019-02-20T18:12:36.288Z,8.24
2019-02-20T18:15:07.138Z,8.19
2019-02-20T18:17:35.612Z,8.24
2019-02-20T18:20:05.219Z,8.26
2019-02-20T18:22:33.881Z,8.27
2019-02-20T18:25:02.327Z,8.22
2019-02-20T18:27:30.732Z,8.14
2019-02-20T18:29:59.151Z,8.14
2019-02-20T18:32:27.735Z,8.16
2019-02-20T18:34:56.143Z,8.12
2019-02-20T18:37:24.582Z,8.03
2019-02-20T18:39:52.976Z,7.92
2019-02-20T18:42:21.487Z,7.90
2019-02-20T18:44:49.939Z,7.89
2019-02-20T18:47:18.377Z,7.82
2019-02-20T18:49:46.779Z,7.83
2019-02-20T18:52:15.240Z,7.82
2019-02-20T18:54:45.163Z,7.70
2019-02-20T18:57:13.711Z,7.69
2019-02-20T18:59:42.254Z,7.67
2019-02-20T19:02:10.698Z,7.62
2019-02-20T19:04:39.113Z,7.64
2019-02-20T19:07:09.441Z,7.63
2019-02-20T19:09:37.888Z,7.54
2019-02-20T19:12:24.563Z,7.59
2019-02-20T19:15:01.845Z,7.57
2019-02-20T19:18:02.239Z,7.53
2019-02-20T19:20:51.712Z,7.41
2019-02-20T19:23:44.563Z,7.32
2019-02-20T19:26:28.105Z,7.30
2019-02-20T19:29:19.074Z,7.35
2019-02-20T19:32:18.016Z,7.36
2019-02-20T19:35:08.646Z,7.24
2019-02-20T19:38:06.660Z,7.26
2019-02-20T19:40:52.101Z,7.26
2019-02-20T19:43:32.220Z,7.23
2019-02-20T19:46:20.165Z,7.15
2019-02-20T19:48:57.466Z,7.11
2019-02-20T19:51:31.942Z,7.07
2019-02-20T19:54:12.070Z,7.00
2019-02-20T19:56:55.577Z,7.00
2019-02-20T19:59:29.841Z,6.89
2019-02-20T20:02:16.399Z,6.81
2019-02-20T20:05:15.054Z,6.78
2019-02-20T20:07:55.218Z,6.68
2019-02-20T20:10:41.591Z,6.61
2019-02-20T20:13:33.048Z,6.58
2019-02-20T20:16:04.525Z,6.51
2019-02-20T20:18:44.683Z,6.48
2019-02-20T20:21:27.959Z,6.51
2019-02-20T20:24:23.786Z,6.47
2019-02-20T20:26:57.713Z,6.42
2019-02-20T20:29:53.174Z,6.40
2019-02-20T20:32:27.356Z,6.32
2019-02-20T20:35:15.637Z,6.07
2019-02-20T20:37:49.515Z,6.01
2019-02-20T20:40:36.211Z,5.97
2019-02-20T20:43:10.798Z,5.97
2019-02-20T20:46:00.395Z,5.95
2019-02-20T20:48:34.459Z,5.88
2019-02-20T20:51:11.908Z,5.80
2019-02-20T20:53:56.261Z,5.80
2019-02-20T20:56:30.391Z,5.76
2019-02-20T20:59:17.949Z,5.77
2019-02-20T21:01:49.578Z,5.60
2019-02-20T21:04:33.349Z,5.54
2019-02-20T21:07:22.808Z,5.57
2019-02-20T21:09:57.045Z,5.46
2019-02-20T21:12:48.226Z,5.40
2019-02-20T21:15:53.170Z,5.36
2019-02-20T21:18:42.590Z,5.46
2019-02-20T21:21:32.271Z,5.39
2019-02-20T21:24:31.034Z,5.39
2019-02-20T21:27:11.422Z,5.28
2019-02-20T21:29:48.600Z,5.28
2019-02-20T21:32:39.358Z,5.19
2019-02-20T21:35:22.564Z,5.32
2019-02-20T21:38:00.182Z,5.24
2019-02-20T21:40:34.694Z,5.16
2019-02-20T21:43:31.459Z,4.98
2019-02-20T21:46:36.010Z,4.89
2019-02-20T21:49:22.498Z,4.84
2019-02-20T21:52:25.037Z,4.78
2019-02-20T21:55:04.588Z,4.74
2019-02-20T21:57:45.132Z,4.73
2019-02-20T22:00:28.440Z,4.68
2019-02-20T22:03:02.421Z,4.67
2019-02-20T22:05:45.952Z,4.64
2019-02-20T22:08:31.697Z,4.63
2019-02-20T22:11:18.027Z,4.53
2019-02-20T22:13:52.419Z,4.58
2019-02-20T22:16:38.865Z,4.49
2019-02-20T22:19:32.816Z,4.44
2019-02-20T22:22:10.320Z,4.38
2019-02-20T22:25:00.704Z,4.34
2019-02-20T22:27:43.934Z,4.37
2019-02-20T22:30:37.920Z,4.49
2019-02-20T22:33:11.902Z,4.37
2019-02-20T22:36:01.517Z,4.30
2019-02-20T22:38:48.437Z,4.28
2019-02-20T22:41:23.992Z,4.13
2019-02-20T22:44:12.261Z,4.23
2019-02-20T22:46:58.918Z,4.14
2019-02-20T22:49:39.983Z,4.16
2019-02-20T22:52:23.681Z,4.12
2019-02-20T22:54:58.112Z,4.10
2019-02-20T22:57:47.100Z,4.02
2019-02-20T23:00:52.708Z,4.03
2019-02-20T23:03:35.700Z,3.95
2019-02-20T23:06:25.475Z,3.96
2019-02-20T23:09:08.465Z,4.07
2019-02-20T23:11:45.634Z,4.01
2019-02-20T23:14:33.603Z,4.07
2019-02-20T23:17:02.006Z,3.99
2019-02-20T23:19:30.476Z,3.89
2019-02-20T23:21:58.900Z,3.97
2019-02-20T23:24:27.384Z,4.07
2019-02-20T23:26:55.785Z,4.05
2019-02-20T23:29:24.288Z,3.97
2019-02-20T23:31:52.716Z,3.93
2019-02-20T23:34:21.210Z,3.79
2019-02-20T23:36:49.704Z,3.78
2019-02-20T23:39:18.120Z,3.81
2019-02-20T23:41:46.543Z,3.60
2019-02-20T23:44:14.971Z,3.67
2019-02-20T23:46:43.399Z,3.70
2019-02-20T23:49:11.817Z,3.70
2019-02-20T23:51:40.212Z,3.85
2019-02-20T23:54:08.635Z,3.90
2019-02-20T23:56:37.045Z,3.92
2019-02-20T23:59:05.525Z,3.76
